CPX317 Details

Departure: Portland International Airport (KPDX)
Arrival: Phoenix Sky Harbor International Airport (KPHX)
Route: BTG J159 DSD REO J523 ELY WINEN Q35 CORKR TENTS BRUSR1


Current Weather Information
KPDX 250953Z 20007KT 10SM FEW040 BKN050 12/07 A3002 RMK AO2 SLP166 T01170072
KPHX 250951Z 11003KT 10SM FEW250 20/M02 A2978 RMK AO2 SLP068 T02001022